Terminal Aerodrome Forecast
Issued by NWS Jacksonville, FL

Home | Current Version | Previous Version | Text Only | Print | Product List | Glossary On
Versions: 1 2 3 4 5 6 7 8 9 10 11 12 13 14 15 16 17 18 19 20 21 22
000
FTUS42 KJAX 010524
TAFGNV
TAF
KGNV 010524Z 0106/0206 02007KT 3SM -RA BR OVC003
     FM011000 03005KT 2SM -DZ BR OVC002
     FM011800 09005KT 4SM BR OVC007
     FM012100 11005KT P6SM BKN025=

USA.gov is the U.S. government's official web portal to all federal, state and local government web resources and services.